Time;durP1;ratioP1;P1;durP2;ratioP2;P2;SDS_P1;SDS_P2;PMS_P1;PMS_P2;Temp;Humidity;BMP_temperature;BMP_pressure;BME280_temperature;BME280_humidity;BME280_pressure;Samples;Min_cycle;Max_cycle;Signal;HPM_P1;HPM_P2
2022/08/10 04:05:16;;;;;;;4.77;4.40;;;16.50;97.80;;;;;;5085730;23;20499;-68
2022/08/10 04:07:45;;;;;;;4.43;4.13;;;16.50;98.00;;;;;;4955025;28;20456;-68
2022/08/10 04:10:13;;;;;;;5.40;5.00;;;16.40;98.40;;;;;;4957540;28;20424;-68
2022/08/10 04:12:38;;;;;;;5.60;5.20;;;16.40;98.80;;;;;;4967108;28;20429;-68
2022/08/10 04:15:04;;;;;;;5.60;5.10;;;16.30;99.00;;;;;;4974639;28;20864;-68
2022/08/10 04:17:30;;;;;;;5.37;4.97;;;16.30;99.10;;;;;;4972980;28;20433;-68
2022/08/10 04:19:57;;;;;;;5.00;4.50;;;16.30;99.40;;;;;;4974595;28;20778;-68
2022/08/10 04:22:26;;;;;;;7.03;4.53;;;16.30;99.50;;;;;;4974161;28;20172;-68
2022/08/10 04:24:59;;;;;;;5.40;5.03;;;16.30;99.30;;;;;;4974437;28;20453;-68
2022/08/10 04:27:25;;;;;;;5.97;5.47;;;16.30;99.50;;;;;;4964138;28;20420;-68
2022/08/10 04:29:54;;;;;;;5.83;4.57;;;16.30;99.80;;;;;;4954816;28;20466;-68
2022/08/10 04:32:21;;;;;;;5.57;4.67;;;16.40;99.60;;;;;;4954796;28;20451;-68
2022/08/10 04:34:49;;;;;;;4.73;4.33;;;16.40;99.50;;;;;;4953626;28;20429;-68
2022/08/10 04:37:17;;;;;;;3.90;3.60;;;16.40;99.80;;;;;;4960658;28;20426;-68
2022/08/10 04:39:42;;;;;;;3.50;3.20;;;16.50;99.90;;;;;;4974309;28;20414;-68
2022/08/10 04:42:08;;;;;;;6.47;3.03;;;16.60;99.90;;;;;;4974332;28;20407;-68
2022/08/10 04:44:34;;;;;;;3.53;3.20;;;16.80;99.40;;;;;;4973772;28;20625;-68
2022/08/10 04:46:59;;;;;;;3.27;3.00;;;17.00;98.50;;;;;;4969787;28;20173;-68
2022/08/10 04:49:26;;;;;;;3.70;3.50;;;17.20;98.10;;;;;;4954628;29;20205;-69
2022/08/10 04:51:51;;;;;;;3.53;3.33;;;17.40;97.80;;;;;;4954984;28;20168;-69
2022/08/10 04:54:17;;;;;;;3.10;2.90;;;17.60;97.40;;;;;;4954562;29;20414;-69
2022/08/10 04:56:42;;;;;;;3.30;3.10;;;17.80;97.30;;;;;;4969069;28;20184;-69
2022/08/10 04:59:09;;;;;;;3.17;2.97;;;17.90;96.70;;;;;;4974301;28;20211;-68
2022/08/10 05:01:37;;;;;;;4.03;3.67;;;18.30;96.10;;;;;;4977371;28;20551;-69
2022/08/10 05:04:03;;;;;;;4.30;3.17;;;18.60;95.20;;;;;;4976907;28;20925;-69
2022/08/10 05:06:28;;;;;;;3.80;3.30;;;19.10;94.40;;;;;;4964730;28;20440;-69
2022/08/10 05:08:54;;;;;;;3.50;3.17;;;19.60;93.60;;;;;;4958460;29;20449;-69
2022/08/10 05:11:19;;;;;;;3.40;3.20;;;19.90;91.80;;;;;;4957954;29;20580;-69
2022/08/10 05:13:45;;;;;;;3.03;2.83;;;19.90;90.90;;;;;;4957603;29;20199;-70
2022/08/10 05:16:11;;;;;;;4.10;3.83;;;19.80;90.70;;;;;;4966559;28;20183;-69
2022/08/10 05:18:36;;;;;;;6.60;3.17;;;19.60;90.30;;;;;;4977406;28;20257;-69
2022/08/10 05:21:02;;;;;;;3.40;3.20;;;19.50;90.70;;;;;;4977265;28;20174;-68
2022/08/10 05:23:28;;;;;;;3.53;3.33;;;19.30;90.80;;;;;;4976836;28;20676;-68
2022/08/10 05:25:54;;;;;;;3.37;3.17;;;19.20;91.30;;;;;;4970552;28;20625;-68
2022/08/10 05:28:19;;;;;;;4.17;3.77;;;19.10;91.50;;;;;;4957659;28;20232;-68
2022/08/10 05:30:45;;;;;;;3.63;3.33;;;19.10;91.60;;;;;;4957839;29;20418;-68
2022/08/10 05:33:11;;;;;;;3.20;3.00;;;19.10;92.10;;;;;;4957297;28;20179;-69
2022/08/10 05:35:37;;;;;;;3.27;3.07;;;19.20;91.70;;;;;;4971270;28;20183;-69
2022/08/10 05:38:03;;;;;;;4.63;3.47;;;19.40;91.90;;;;;;4977096;28;20259;-68
2022/08/10 05:40:29;;;;;;;3.37;3.00;;;19.50;91.40;;;;;;4976954;28;20470;-72
2022/08/10 05:42:55;;;;;;;3.10;2.90;;;19.60;91.30;;;;;;4976551;28;20411;-68
2022/08/10 05:45:24;;;;;;;4.00;3.23;;;19.70;91.20;;;;;;4964841;28;20274;-68
2022/08/10 05:47:50;;;;;;;4.13;3.83;;;19.70;91.00;;;;;;4957273;28;20515;-69
2022/08/10 05:50:20;;;;;;;3.80;3.50;;;19.80;91.00;;;;;;4957548;28;20468;-69
2022/08/10 05:52:46;;;;;;;3.83;3.63;;;19.70;91.20;;;;;;4956995;28;20439;-69
2022/08/10 05:55:12;;;;;;;3.60;3.30;;;19.70;91.00;;;;;;4965887;28;20451;-69
2022/08/10 05:57:38;;;;;;;4.40;4.00;;;19.70;91.00;;;;;;4976607;28;20420;-69
2022/08/10 06:00:08;;;;;;;3.73;3.43;;;19.80;90.90;;;;;;4976649;28;20184;-69
2022/08/10 06:02:39;;;;;;;4.10;3.70;;;19.90;90.50;;;;;;4976111;28;20415;-68
2022/08/10 06:05:13;;;;;;;4.00;3.57;;;20.00;90.30;;;;;;4968099;28;20486;-69
2022/08/10 06:07:52;;;;;;;4.70;4.30;;;20.10;89.80;;;;;;4956745;28;20473;-69
2022/08/10 06:10:20;;;;;;;4.27;3.97;;;20.20;89.50;;;;;;4955506;28;20417;-70
2022/08/10 06:14:59;;;;;;;4.50;4.00;;;20.30;89.30;;;;;;4972429;28;20929;-70
2022/08/10 06:15:37;;;;;;;7.40;3.57;;;20.30;88.60;;;;;;4976091;28;20490;-70
2022/08/10 06:18:04;;;;;;;3.97;3.67;;;20.50;87.40;;;;;;4976354;28;20408;-70
2022/08/10 06:20:31;;;;;;;3.87;3.57;;;20.60;87.50;;;;;;4975704;28;20419;-70
2022/08/10 06:22:59;;;;;;;3.90;3.53;;;20.70;86.50;;;;;;4937215;29;20432;-77
2022/08/10 06:25:27;;;;;;;5.10;4.20;;;20.70;86.10;;;;;;4937345;29;20436;-77
2022/08/10 06:27:54;;;;;;;4.20;3.90;;;20.70;85.80;;;;;;4942166;29;20459;-66
2022/08/10 06:30:21;;;;;;;3.40;3.20;;;20.80;85.70;;;;;;4956690;28;20921;-66
2022/08/10 06:32:52;;;;;;;3.50;3.30;;;20.80;85.00;;;;;;4973944;28;20443;-65
2022/08/10 06:35:19;;;;;;;3.57;3.30;;;21.00;84.40;;;;;;4971857;28;20535;-65
2022/08/10 06:37:46;;;;;;;3.87;3.47;;;20.90;84.10;;;;;;4956415;28;20617;-64
2022/08/10 06:40:12;;;;;;;3.70;3.40;;;21.10;83.70;;;;;;4956620;28;20435;-65
2022/08/10 06:42:42;;;;;;;2.97;2.73;;;21.20;83.10;;;;;;4955539;28;20428;-65
2022/08/10 06:45:15;;;;;;;3.20;3.00;;;21.40;83.50;;;;;;4956260;28;20220;-65
2022/08/10 06:47:47;;;;;;;3.63;3.37;;;21.50;82.30;;;;;;4951172;29;20868;-64
2022/08/10 06:50:17;;;;;;;3.23;3.03;;;21.60;81.20;;;;;;4937067;29;20421;-62
2022/08/10 06:52:44;;;;;;;3.47;3.23;;;21.60;81.60;;;;;;4952618;28;20760;-64
2022/08/10 06:55:13;;;;;;;3.80;3.60;;;21.70;81.20;;;;;;4974509;28;21002;-64
2022/08/10 06:57:41;;;;;;;3.30;3.10;;;21.80;81.70;;;;;;4975467;28;20430;-67
2022/08/10 07:00:08;;;;;;;2.57;2.43;;;21.90;80.50;;;;;;4973719;28;20773;-66
2022/08/10 07:02:45;;;;;;;3.20;2.90;;;22.10;79.60;;;;;;4955357;28;20432;-65
2022/08/10 07:05:17;;;;;;;3.00;2.80;;;22.10;79.80;;;;;;4955928;28;20791;-66
2022/08/10 07:07:45;;;;;;;2.30;2.20;;;22.20;78.40;;;;;;4955872;28;20465;-65
2022/08/10 07:10:12;;;;;;;2.80;2.60;;;22.30;77.00;;;;;;4956006;28;20416;-66
2022/08/10 07:12:38;;;;;;;2.70;2.50;;;22.40;77.10;;;;;;4963176;28;20435;-68
2022/08/10 07:15:07;;;;;;;2.60;2.50;;;22.50;77.10;;;;;;4958403;28;20497;-70
2022/08/10 07:17:35;;;;;;;3.13;2.93;;;22.60;75.90;;;;;;4975007;28;20404;-67
2022/08/10 07:20:01;;;;;;;2.20;2.10;;;22.60;75.30;;;;;;4975411;28;20500;-68
2022/08/10 07:22:30;;;;;;;2.20;2.10;;;22.70;74.20;;;;;;4960915;28;20433;-67
2022/08/10 07:24:58;;;;;;;2.70;2.50;;;22.80;73.90;;;;;;4955317;28;20838;-69
2022/08/10 07:27:25;;;;;;;2.57;2.37;;;22.80;74.20;;;;;;4955519;28;20415;-70
2022/08/10 07:29:53;;;;;;;3.07;2.80;;;22.90;74.20;;;;;;4955521;28;20404;-70
2022/08/10 07:32:22;;;;;;;3.00;2.80;;;22.90;74.10;;;;;;4949336;28;20466;-73
2022/08/10 07:34:52;;;;;;;3.73;2.60;;;23.00;73.80;;;;;;4954988;29;20450;-70
2022/08/10 07:37:19;;;;;;;2.60;2.40;;;23.20;73.80;;;;;;4955931;28;20461;-70
2022/08/10 07:39:47;;;;;;;2.43;2.23;;;23.50;73.70;;;;;;4955572;28;20427;-70
2022/08/10 07:42:15;;;;;;;2.90;2.70;;;23.80;73.10;;;;;;4965659;28;20470;-71
2022/08/10 07:44:42;;;;;;;1.90;1.80;;;24.40;71.20;;;;;;4963195;28;20444;-71
2022/08/10 07:47:13;;;;;;;2.57;2.47;;;25.10;68.00;;;;;;4954066;29;20420;-70
2022/08/10 07:49:40;;;;;;;2.10;2.00;;;25.90;65.70;;;;;;4955566;28;20763;-71
2022/08/10 07:52:09;;;;;;;1.80;1.70;;;27.20;61.90;;;;;;4964429;28;20439;-70
2022/08/10 07:54:40;;;;;;;2.37;2.23;;;28.30;59.00;;;;;;4964560;28;20486;-73
2022/08/10 07:57:09;;;;;;;3.73;2.80;;;29.40;56.30;;;;;;4955119;28;20891;-67
2022/08/10 07:59:41;;;;;;;2.90;2.40;;;30.20;54.60;;;;;;4953976;28;20483;-70
2022/08/10 08:02:16;;;;;;;2.63;2.53;;;30.80;53.90;;;;;;4951012;28;20495;-73
2022/08/10 08:04:43;;;;;;;2.90;2.77;;;31.40;52.20;;;;;;4954811;28;20478;-69
2022/08/10 08:07:11;;;;;;;2.83;2.10;;;32.00;51.70;;;;;;4952811;28;21012;-70
2022/08/10 08:09:37;;;;;;;2.40;2.20;;;32.60;50.40;;;;;;4936027;29;20917;-69
2022/08/10 08:12:05;;;;;;;2.70;2.43;;;33.10;49.10;;;;;;4935945;29;20504;-69
2022/08/10 08:14:33;;;;;;;2.87;2.77;;;33.50;48.70;;;;;;4935539;29;20494;-70
2022/08/10 08:16:59;;;;;;;2.80;2.60;;;33.80;47.80;;;;;;4935983;29;20866;-70
2022/08/10 08:19:25;;;;;;;2.07;1.97;;;34.00;47.30;;;;;;4942049;29;20428;-70
2022/08/10 08:21:53;;;;;;;3.20;3.00;;;34.30;47.50;;;;;;4934500;29;20188;-70
2022/08/10 08:24:21;;;;;;;2.53;2.40;;;34.90;46.60;;;;;;4934156;29;20419;-70
2022/08/10 08:26:47;;;;;;;3.23;2.90;;;35.50;45.50;;;;;;4935862;29;20421;-73
2022/08/10 08:29:14;;;;;;;2.17;2.07;;;35.60;44.60;;;;;;4935675;29;20951;-72
2022/08/10 08:31:41;;;;;;;2.20;2.10;;;35.60;44.20;;;;;;4945728;29;20432;-72
2022/08/10 08:34:08;;;;;;;2.53;2.43;;;35.50;43.80;;;;;;4955392;28;20499;-71
2022/08/10 08:36:39;;;;;;;3.83;2.67;;;35.40;44.10;;;;;;4955344;29;20438;-70
2022/08/10 08:39:04;;;;;;;2.53;2.43;;;35.20;43.60;;;;;;4956726;29;20428;-70
2022/08/10 08:41:50;;;;;;;2.20;2.00;;;35.30;43.50;;;;;;4957839;28;20450;-72
2022/08/10 08:44:33;;;;;;;2.13;2.03;;;35.50;43.10;;;;;;4956987;29;20228;-70
2022/08/10 08:47:23;;;;;;;2.70;2.60;;;35.70;42.60;;;;;;4958232;28;20424;-72
2022/08/10 08:49:58;;;;;;;2.30;2.20;;;35.90;42.20;;;;;;4957396;28;20395;-72
2022/08/10 08:52:29;;;;;;;2.30;2.20;;;35.90;41.90;;;;;;4951160;29;20409;-72
2022/08/10 08:55:27;;;;;;;2.17;2.07;;;36.00;41.40;;;;;;4957565;28;20491;-72
2022/08/10 08:58:17;;;;;;;2.53;2.43;;;36.10;40.70;;;;;;4948001;28;20396;-73
2022/08/10 09:01:05;;;;;;;2.33;2.23;;;35.80;41.60;;;;;;4958226;28;20773;-72
2022/08/10 09:03:50;;;;;;;2.40;2.20;;;35.90;41.60;;;;;;4953832;29;20422;-71
2022/08/10 09:06:28;;;;;;;2.40;2.20;;;35.90;41.70;;;;;;4958012;28;20442;-72
2022/08/10 09:09:30;;;;;;;2.10;2.00;;;35.80;40.90;;;;;;4957967;28;20463;-72
2022/08/10 09:12:29;;;;;;;2.37;2.00;;;35.50;40.90;;;;;;4957790;28;20400;-71
2022/08/10 09:15:16;;;;;;;2.33;2.23;;;35.70;41.30;;;;;;4957948;29;20448;-73
2022/08/10 09:17:52;;;;;;;2.30;2.10;;;35.60;40.50;;;;;;4958075;29;20386;-69
2022/08/10 09:20:50;;;;;;;2.03;1.93;;;35.10;39.80;;;;;;4957425;28;20476;-70
2022/08/10 09:23:27;;;;;;;2.13;2.03;;;34.60;40.30;;;;;;4955844;29;20471;-69
2022/08/10 09:26:00;;;;;;;2.00;1.90;;;34.50;41.00;;;;;;4957513;28;20931;-67
2022/08/10 09:28:30;;;;;;;2.13;2.03;;;34.60;40.30;;;;;;4956740;28;20867;-69
2022/08/10 09:31:07;;;;;;;1.83;1.73;;;34.90;40.10;;;;;;4957318;28;20445;-68
2022/08/10 09:33:46;;;;;;;1.80;1.70;;;35.20;38.50;;;;;;4957010;28;20996;-69
2022/08/10 09:36:19;;;;;;;1.90;1.80;;;35.10;37.70;;;;;;4957777;28;20459;-69
2022/08/10 09:39:10;;;;;;;1.77;1.67;;;35.00;38.10;;;;;;4957734;28;20500;-69
2022/08/10 09:41:42;;;;;;;1.90;1.80;;;34.90;37.30;;;;;;4956998;28;20957;-70
2022/08/10 09:44:30;;;;;;;1.80;1.67;;;34.60;37.80;;;;;;4956953;28;20878;-69
2022/08/10 09:47:17;;;;;;;1.93;1.83;;;34.70;37.50;;;;;;4957259;28;20375;-69
2022/08/10 09:49:42;;;;;;;3.53;2.17;;;34.70;38.10;;;;;;4955207;29;20966;-68
2022/08/10 09:52:20;;;;;;;2.07;1.90;;;34.40;38.20;;;;;;4957098;28;20471;-67
2022/08/10 09:54:54;;;;;;;1.90;1.80;;;34.30;37.40;;;;;;4957427;28;20193;-69
2022/08/10 09:58:05;;;;;;;1.90;1.80;;;34.00;38.10;;;;;;4957501;28;20396;-67
2022/08/10 10:00:40;;;;;;;1.90;1.80;;;33.80;37.90;;;;;;4955758;29;20436;-71
2022/08/10 10:03:40;;;;;;;1.73;1.63;;;33.80;38.50;;;;;;4955746;28;20850;-67
2022/08/10 10:06:45;;;;;;;1.70;1.60;;;34.00;38.10;;;;;;4956964;28;20905;-66
2022/08/10 10:09:20;;;;;;;2.47;1.57;;;33.80;38.40;;;;;;4955715;29;20793;-68
2022/08/10 10:11:55;;;;;;;1.50;1.40;;;33.80;37.90;;;;;;4956720;28;20432;-71
2022/08/10 10:14:34;;;;;;;1.77;1.67;;;33.90;38.00;;;;;;4956508;28;20431;-67
2022/08/10 10:17:25;;;;;;;2.10;2.00;;;33.80;37.90;;;;;;4956423;28;20483;-70
2022/08/10 10:20:13;;;;;;;2.30;2.20;;;33.70;38.70;;;;;;4956466;28;20750;-69
2022/08/10 10:22:49;;;;;;;3.27;1.90;;;33.30;39.90;;;;;;4937287;29;20399;-69
2022/08/10 10:25:29;;;;;;;2.40;2.20;;;33.20;40.20;;;;;;4937345;29;20396;-68
2022/08/10 10:28:09;;;;;;;2.00;1.90;;;33.40;39.20;;;;;;4937264;29;20532;-68
2022/08/10 10:31:17;;;;;;;2.60;2.37;;;33.40;39.70;;;;;;4946918;29;20790;-69
2022/08/10 10:34:25;;;;;;;2.40;2.30;;;33.60;40.20;;;;;;4934054;28;20463;-69
2022/08/10 10:36:52;;;;;;;4.60;2.27;;;33.60;40.80;;;;;;4951470;28;20442;-71
2022/08/10 10:39:21;;;;;;;2.20;2.00;;;33.40;40.00;;;;;;4956605;28;20460;-67
2022/08/10 10:41:53;;;;;;;2.20;2.10;;;33.20;39.70;;;;;;4955500;29;20906;-69
2022/08/10 10:44:43;;;;;;;2.17;2.07;;;33.10;39.70;;;;;;4956165;28;20387;-67
2022/08/10 10:47:27;;;;;;;1.87;1.77;;;33.00;39.10;;;;;;4956549;28;20411;-68
2022/08/10 10:50:12;;;;;;;2.00;1.83;;;33.00;39.10;;;;;;4953070;29;20817;-70
2022/08/10 10:52:56;;;;;;;1.83;1.73;;;32.90;39.20;;;;;;4956203;28;20490;-69
2022/08/10 10:55:32;;;;;;;1.80;1.70;;;32.60;39.30;;;;;;4955807;28;20410;-68
2022/08/10 10:58:03;;;;;;;1.90;1.80;;;32.60;39.40;;;;;;4955400;28;20529;-69
2022/08/10 11:00:43;;;;;;;1.73;1.63;;;32.50;39.70;;;;;;4956117;28;20387;-69
2022/08/10 11:03:32;;;;;;;2.00;1.90;;;32.40;39.70;;;;;;4955745;28;20375;-71
2022/08/10 11:06:37;;;;;;;1.97;1.87;;;32.40;40.30;;;;;;4952651;29;20920;-68
2022/08/10 11:09:08;;;;;;;2.10;2.00;;;32.20;40.60;;;;;;4955849;28;20463;-69
2022/08/10 11:11:37;;;;;;;3.73;1.90;;;32.50;40.30;;;;;;4955286;28;20395;-71
2022/08/10 11:14:30;;;;;;;2.00;1.90;;;32.50;39.80;;;;;;4955542;28;20414;-68
2022/08/10 11:17:24;;;;;;;2.27;2.17;;;32.20;40.40;;;;;;4955426;28;20394;-69
2022/08/10 11:20:08;;;;;;;1.83;1.73;;;31.70;40.70;;;;;;4955998;28;20443;-70
2022/08/10 11:22:43;;;;;;;2.13;2.03;;;31.00;41.40;;;;;;4955091;28;20431;-67
2022/08/10 11:25:26;;;;;;;1.83;1.70;;;30.40;42.60;;;;;;4955193;28;20450;-71
2022/08/10 11:28:09;;;;;;;1.60;1.50;;;30.00;42.60;;;;;;4954003;29;20467;-69
2022/08/10 11:30:54;;;;;;;1.80;1.70;;;29.60;43.00;;;;;;4955165;28;20424;-66
2022/08/10 11:33:38;;;;;;;1.77;1.67;;;29.20;43.60;;;;;;4955245;28;20861;-72
2022/08/10 11:36:19;;;;;;;2.50;2.10;;;28.90;44.00;;;;;;4954990;29;20422;-70
2022/08/10 11:39:18;;;;;;;1.60;1.50;;;28.70;44.10;;;;;;4955416;28;20414;-70
2022/08/10 11:41:43;;;;;;;1.80;1.70;;;28.60;44.50;;;;;;4949709;28;20806;-71
2022/08/10 11:44:58;;;;;;;1.93;1.80;;;28.60;44.70;;;;;;4953435;28;20474;-70
2022/08/10 11:47:45;;;;;;;1.90;1.80;;;28.40;44.90;;;;;;4955763;28;20177;-71
2022/08/10 11:50:22;;;;;;;2.10;2.00;;;28.30;45.70;;;;;;4954652;28;20450;-72
2022/08/10 11:53:11;;;;;;;1.40;1.40;;;28.30;45.40;;;;;;4936120;29;20764;-70
2022/08/10 11:55:37;;;;;;;2.30;2.00;;;28.30;45.70;;;;;;4936332;29;20413;-68
2022/08/10 12:01:01;;;;;;;1.57;1.53;;;28.30;45.50;;;;;;4954365;28;20189;-71
2022/08/10 12:03:30;;;;;;;2.27;2.17;;;28.40;45.20;;;;;;4936089;29;20785;-69
2022/08/10 12:05:56;;;;;;;2.03;1.93;;;28.50;45.30;;;;;;4949066;29;20986;-70
2022/08/10 12:08:27;;;;;;;1.77;1.67;;;28.50;45.20;;;;;;4955290;28;20455;-69
2022/08/10 12:10:53;;;;;;;2.20;2.10;;;28.60;45.50;;;;;;4959051;29;20421;-68
2022/08/10 12:13:36;;;;;;;2.03;1.93;;;28.60;45.00;;;;;;4957476;29;20453;-70
2022/08/10 12:16:22;;;;;;;3.30;2.00;;;28.60;44.40;;;;;;4958304;28;20838;-69
2022/08/10 12:19:09;;;;;;;2.03;1.93;;;28.50;44.70;;;;;;4940266;28;20474;-70
2022/08/10 12:21:45;;;;;;;2.20;2.10;;;28.40;45.10;;;;;;4946417;29;20436;-67
2022/08/10 12:24:17;;;;;;;5.87;1.80;;;28.40;45.60;;;;;;4958181;28;20454;-70
2022/08/10 12:26:54;;;;;;;1.93;1.83;;;28.50;45.20;;;;;;4958314;28;20419;-70
2022/08/10 12:29:30;;;;;;;2.07;1.97;;;28.50;44.40;;;;;;4958814;28;20453;-70
2022/08/10 12:32:04;;;;;;;1.60;1.50;;;28.50;44.60;;;;;;4957746;29;20428;-70
2022/08/10 12:34:30;;;;;;;2.73;1.90;;;28.40;44.80;;;;;;4958134;28;20421;-69
2022/08/10 12:37:10;;;;;;;1.70;1.60;;;28.40;45.00;;;;;;4958092;28;20425;-68
2022/08/10 12:39:50;;;;;;;1.50;1.50;;;28.50;44.80;;;;;;4958760;28;20173;-70
2022/08/10 12:42:21;;;;;;;1.40;1.40;;;28.60;44.80;;;;;;4956679;28;20456;-69
2022/08/10 12:45:02;;;;;;;2.13;2.03;;;28.70;44.20;;;;;;4958322;28;20479;-69
2022/08/10 12:47:38;;;;;;;4.60;1.63;;;28.60;44.10;;;;;;4958025;28;20787;-68
2022/08/10 12:50:15;;;;;;;1.90;1.73;;;28.50;44.20;;;;;;4958251;28;20967;-71
2022/08/10 12:52:55;;;;;;;1.63;1.40;;;28.50;44.00;;;;;;4957760;28;21066;-69
2022/08/10 12:55:23;;;;;;;1.87;1.77;;;28.50;43.50;;;;;;4958404;28;20416;-69
2022/08/10 12:57:52;;;;;;;1.60;1.50;;;28.50;44.00;;;;;;4958187;28;20560;-69
2022/08/10 13:00:19;;;;;;;3.10;2.00;;;28.50;43.80;;;;;;4958485;28;20406;-76
2022/08/10 13:02:46;;;;;;;2.03;1.90;;;28.60;44.20;;;;;;4956669;29;20472;-76
2022/08/10 13:05:13;;;;;;;1.90;1.80;;;28.60;43.90;;;;;;4957915;28;20428;-74
2022/08/10 13:07:42;;;;;;;3.33;1.77;;;28.60;44.00;;;;;;4953575;28;20971;-75
2022/08/10 13:10:12;;;;;;;1.80;1.70;;;28.50;44.00;;;;;;4957997;29;20942;-73
2022/08/10 13:12:49;;;;;;;1.93;1.83;;;28.50;43.60;;;;;;4958008;28;21042;-73
2022/08/10 13:15:24;;;;;;;2.83;1.80;;;28.50;43.30;;;;;;4957721;28;20440;-71
2022/08/10 13:17:52;;;;;;;2.10;1.90;;;28.50;43.80;;;;;;4957744;28;20399;-71
2022/08/10 13:20:26;;;;;;;1.50;1.50;;;28.50;43.80;;;;;;4956701;28;20491;-72
2022/08/10 13:22:56;;;;;;;2.10;1.90;;;28.40;43.60;;;;;;4957731;28;20556;-68
2022/08/10 13:25:27;;;;;;;1.97;1.27;;;28.50;44.40;;;;;;4956471;28;20803;-68
2022/08/10 13:27:55;;;;;;;1.80;1.70;;;28.60;44.40;;;;;;4957049;28;20456;-69
2022/08/10 13:30:25;;;;;;;2.10;2.00;;;28.60;43.80;;;;;;4957745;28;20835;-67
2022/08/10 13:32:52;;;;;;;1.70;1.60;;;28.70;43.50;;;;;;4955423;28;20533;-68
2022/08/10 13:35:20;;;;;;;1.73;1.63;;;28.80;43.60;;;;;;4956500;28;20443;-67
2022/08/10 13:37:47;;;;;;;1.87;1.70;;;28.70;43.70;;;;;;4955920;28;20447;-66
2022/08/10 13:40:18;;;;;;;2.00;1.90;;;28.80;43.60;;;;;;4956330;28;20895;-68
2022/08/10 13:42:44;;;;;;;1.90;1.57;;;28.70;43.20;;;;;;4955566;28;20397;-68
2022/08/10 13:45:16;;;;;;;1.80;1.70;;;28.70;42.90;;;;;;4957069;28;20432;-69
2022/08/10 13:47:45;;;;;;;1.90;1.80;;;28.70;43.10;;;;;;4957042;28;20429;-68
2022/08/10 13:50:17;;;;;;;1.70;1.60;;;28.70;42.90;;;;;;4957499;28;20414;-68
2022/08/10 13:52:50;;;;;;;1.70;1.30;;;28.60;42.80;;;;;;4956190;29;20402;-68
2022/08/10 13:55:19;;;;;;;1.77;1.67;;;28.60;43.20;;;;;;4955999;29;20446;-68
2022/08/10 13:57:48;;;;;;;1.40;1.40;;;28.50;43.40;;;;;;4957326;28;20460;-68
2022/08/10 14:00:14;;;;;;;1.70;1.60;;;28.50;43.70;;;;;;4957203;28;20421;-68
2022/08/10 14:02:44;;;;;;;1.50;1.50;;;28.40;43.70;;;;;;4956881;28;20785;-68
2022/08/10 14:05:11;;;;;;;1.90;1.80;;;28.50;43.90;;;;;;4957106;28;20433;-68
2022/08/10 14:07:42;;;;;;;1.50;1.50;;;28.60;43.70;;;;;;4956873;28;20456;-68
2022/08/10 14:10:10;;;;;;;1.90;1.80;;;28.50;43.20;;;;;;4938136;29;20402;-68
2022/08/10 14:12:49;;;;;;;1.77;1.77;;;28.60;43.40;;;;;;4937496;29;20841;-67
2022/08/10 14:15:17;;;;;;;1.90;1.80;;;28.50;44.00;;;;;;4937851;29;20784;-68
2022/08/10 14:17:49;;;;;;;3.30;2.00;;;28.60;43.30;;;;;;4941084;29;20969;-68
2022/08/10 14:20:16;;;;;;;2.00;1.90;;;28.50;43.30;;;;;;4957254;28;20499;-68
2022/08/10 14:22:42;;;;;;;2.13;1.70;;;28.60;43.60;;;;;;4956465;28;20413;-69
2022/08/10 14:25:13;;;;;;;1.83;1.73;;;28.60;43.70;;;;;;4956755;28;20510;-67
2022/08/10 14:27:45;;;;;;;1.50;1.50;;;28.50;43.60;;;;;;4956393;28;20547;-68
2022/08/10 14:30:16;;;;;;;1.57;1.47;;;28.50;43.40;;;;;;4956909;28;20556;-68
2022/08/10 14:32:51;;;;;;;1.70;1.60;;;28.50;43.80;;;;;;4956058;28;20409;-68
2022/08/10 14:35:19;;;;;;;1.43;1.33;;;28.50;43.90;;;;;;4956573;28;20436;-68
2022/08/10 14:37:54;;;;;;;1.80;1.70;;;28.60;43.70;;;;;;4956197;28;20432;-69
2022/08/10 14:40:24;;;;;;;4.50;1.70;;;28.60;43.60;;;;;;4956535;28;20409;-67
2022/08/10 14:43:00;;;;;;;1.77;1.67;;;28.50;43.70;;;;;;4956021;28;20411;-68
2022/08/10 14:45:38;;;;;;;1.67;1.57;;;28.60;43.40;;;;;;4956460;28;20782;-67
2022/08/10 14:48:21;;;;;;;3.30;1.57;;;28.60;42.90;;;;;;4955604;28;20491;-68
2022/08/10 14:50:51;;;;;;;1.90;1.80;;;28.50;43.00;;;;;;4955789;28;20400;-68
2022/08/10 14:53:22;;;;;;;1.77;1.67;;;28.50;43.10;;;;;;4955870;28;20787;-67
2022/08/10 14:55:50;;;;;;;1.70;1.60;;;28.50;43.00;;;;;;4956282;28;20409;-68
2022/08/10 14:58:22;;;;;;;1.40;1.40;;;28.50;43.00;;;;;;4955961;28;20421;-68
2022/08/10 15:00:50;;;;;;;2.80;2.07;;;28.50;42.80;;;;;;4956029;28;20896;-67
2022/08/10 15:03:17;;;;;;;1.60;1.50;;;28.50;42.90;;;;;;4955669;28;20405;-69
2022/08/10 15:05:44;;;;;;;2.37;1.67;;;28.50;42.80;;;;;;4954663;29;20943;-66
2022/08/10 15:08:12;;;;;;;2.13;1.93;;;28.50;43.10;;;;;;4955489;28;20470;-68
2022/08/10 15:10:39;;;;;;;2.13;1.70;;;28.50;43.30;;;;;;4955938;28;20420;-68
2022/08/10 15:13:12;;;;;;;1.80;1.70;;;28.50;43.20;;;;;;4955457;28;20418;-68
2022/08/10 15:15:38;;;;;;;2.07;1.60;;;28.50;43.10;;;;;;4956129;28;20767;-68
2022/08/10 15:18:06;;;;;;;1.73;1.63;;;28.50;42.80;;;;;;4955773;28;20409;-68
2022/08/10 15:20:35;;;;;;;1.70;1.60;;;28.60;43.40;;;;;;4955670;28;20774;-68
2022/08/10 15:23:08;;;;;;;1.50;1.40;;;28.50;43.00;;;;;;4955296;28;20427;-68
2022/08/10 15:25:41;;;;;;;1.30;1.30;;;28.60;42.70;;;;;;4955695;28;20384;-70
2022/08/10 15:28:14;;;;;;;1.50;1.40;;;28.50;42.30;;;;;;4955413;28;20469;-67
2022/08/10 15:30:48;;;;;;;2.03;1.40;;;28.50;42.20;;;;;;4955350;28;20423;-66
2022/08/10 15:39:06;;;;;;;1.67;1.40;;;28.40;42.50;;;;;;4954070;28;20982;-66
2022/08/10 15:41:50;;;;;;;1.77;1.67;;;28.50;42.40;;;;;;4955751;28;20471;-69
2022/08/10 15:44:15;;;;;;;1.73;1.40;;;28.40;42.40;;;;;;4954418;28;20506;-68
2022/08/10 15:46:50;;;;;;;1.83;1.73;;;28.40;42.60;;;;;;4955340;28;20495;-68
2022/08/10 15:49:22;;;;;;;1.50;1.50;;;28.40;42.70;;;;;;4954838;28;20554;-68
2022/08/10 15:52:02;;;;;;;1.70;1.60;;;28.40;43.10;;;;;;4955080;28;20432;-68
2022/08/10 15:54:38;;;;;;;2.03;1.93;;;28.40;43.00;;;;;;4954850;28;20387;-68
2022/08/10 15:57:09;;;;;;;2.10;2.00;;;28.40;42.80;;;;;;4954108;29;20409;-68
2022/08/10 15:59:45;;;;;;;1.70;1.60;;;28.40;43.00;;;;;;4955169;28;20421;-68
2022/08/10 16:02:19;;;;;;;2.10;2.00;;;28.40;42.90;;;;;;4955173;28;20413;-67
2022/08/10 16:05:02;;;;;;;1.63;1.30;;;28.40;43.50;;;;;;4955239;28;20429;-68
2022/08/10 16:07:33;;;;;;;1.63;1.53;;;28.40;42.80;;;;;;4955326;28;20408;-67
2022/08/10 16:10:10;;;;;;;1.83;1.63;;;28.40;42.90;;;;;;4954741;28;20965;-68
2022/08/10 16:12:59;;;;;;;1.60;1.50;;;28.40;43.00;;;;;;4954928;28;20383;-68
2022/08/10 16:15:26;;;;;;;2.20;2.10;;;28.30;43.00;;;;;;4951270;28;20444;-68
2022/08/10 16:17:55;;;;;;;5.90;2.80;;;28.30;43.00;;;;;;4955446;28;20405;-68
2022/08/10 16:20:34;;;;;;;1.90;1.80;;;28.30;43.10;;;;;;4954665;28;20417;-68
2022/08/10 16:23:06;;;;;;;2.67;2.00;;;28.30;43.30;;;;;;4952661;29;20430;-67
2022/08/10 16:25:33;;;;;;;1.70;1.60;;;28.20;43.80;;;;;;4955082;28;20436;-68
2022/08/10 16:28:06;;;;;;;1.93;1.83;;;28.20;43.50;;;;;;4954695;28;20456;-68
2022/08/10 16:30:54;;;;;;;1.70;1.60;;;28.20;43.60;;;;;;4955213;28;20380;-67
2022/08/10 16:33:26;;;;;;;1.80;1.70;;;28.20;43.60;;;;;;4954138;29;20421;-68
2022/08/10 16:35:59;;;;;;;2.03;1.93;;;28.10;43.80;;;;;;4955135;28;20475;-68
2022/08/10 16:38:26;;;;;;;1.80;1.70;;;28.10;43.70;;;;;;4954784;28;20424;-68
2022/08/10 16:40:53;;;;;;;2.23;2.07;;;28.10;43.90;;;;;;4955009;28;20516;-68
2022/08/10 16:43:21;;;;;;;3.07;1.90;;;28.10;44.00;;;;;;4954617;28;20419;-68
2022/08/10 16:45:51;;;;;;;1.53;1.50;;;28.10;44.30;;;;;;4955087;28;20409;-68
2022/08/10 16:48:20;;;;;;;1.70;1.60;;;28.10;43.90;;;;;;4953312;29;20496;-68
2022/08/10 16:50:56;;;;;;;2.47;1.80;;;28.10;44.60;;;;;;4954971;28;20504;-68
2022/08/10 16:53:24;;;;;;;2.30;1.60;;;28.10;44.00;;;;;;4954365;28;20905;-69
2022/08/10 16:55:54;;;;;;;1.60;1.50;;;28.10;44.00;;;;;;4957149;28;20412;-68
2022/08/10 16:58:24;;;;;;;2.10;1.90;;;28.10;44.10;;;;;;4957998;28;20508;-68
2022/08/10 17:00:51;;;;;;;1.80;1.70;;;28.00;43.60;;;;;;4958369;28;20768;-67
2022/08/10 17:03:24;;;;;;;2.10;1.90;;;28.00;43.90;;;;;;4957942;28;20427;-68
2022/08/10 17:05:54;;;;;;;1.70;1.60;;;27.90;43.80;;;;;;4956918;28;20921;-67
2022/08/10 17:08:22;;;;;;;1.60;1.50;;;27.90;44.10;;;;;;4958170;28;20459;-68
2022/08/10 17:10:51;;;;;;;1.73;1.63;;;27.80;44.00;;;;;;4958298;28;20404;-67
2022/08/10 17:13:21;;;;;;;2.00;1.90;;;27.80;44.10;;;;;;4957836;28;20408;-68
2022/08/10 17:15:57;;;;;;;1.80;1.70;;;27.80;44.10;;;;;;4958274;28;20516;-68
2022/08/10 17:18:28;;;;;;;2.50;2.33;;;27.70;44.20;;;;;;4957366;28;20530;-68
2022/08/10 17:20:59;;;;;;;1.60;1.50;;;27.70;44.20;;;;;;4958242;28;20448;-69
2022/08/10 17:23:30;;;;;;;2.20;2.10;;;27.70;44.30;;;;;;4956761;28;20436;-68
2022/08/10 17:26:00;;;;;;;2.20;2.00;;;27.60;44.20;;;;;;4956849;28;20571;-68
2022/08/10 17:28:27;;;;;;;2.40;2.20;;;27.60;44.40;;;;;;4958160;29;20467;-73
2022/08/10 17:30:59;;;;;;;2.10;2.00;;;27.50;44.60;;;;;;4959806;28;20887;-69